Aérodrome :
LOGIN :

S'inscrire | Disclaimer

   EN    FR    IT 

 










Légende :    VFR   VFR Marginal   IFR   IFR Intensif   IFR Très Intensif
Visi : 
Plafond : 
>= 8 km
>= 3000ft
5 à 8 km
1000 à 3000 ft
1500m à 5 km
500 à 1000 ft
800 à 1500m
200 à 500 ft
< 800m
< 200 ft
Symboles :   Orages  Brouillard  Fortes neiges  Fortes précipitations  Vent > 20 kt
SIGMETs :   Divers  Orages  Givrage  Turbulence  Onde Orograph.  Cendres Volcan.







- Altitude de l'aérodrome : 239 ft
- Code IATA : VRN


LIPX - Villafranca Int. Verona

DERNIER METAR :
  • 261150Z 28009KT 9999 SCT060 26/12 Q1004

METARs EXPIRÉS :
  • 261120Z 26008KT 210V300 9999 SCT070 26/11 Q1004
  • 261050Z 27006KT 230V340 9999 SCT070 26/11 Q1005
  • 261020Z 25009KT 220V280 9999 FEW070 25/11 Q1005
  • 260950Z 24008KT 190V290 9999 FEW060 24/12 Q1005
  • 260920Z 24009KT 210V280 9999 FEW060 24/12 Q1005

TAF TAF LIPX
Valide du 26 à 12h jusqu'au 26 à 21h UTC


261100Z 2612/2621 24008KT 9999 SCT050
Pas de NOTAMs connus pour ce terrain.



MET'MAP, la Météo Aéronautique d'un coup d'oeil ! - Copyright ORBIFLY Décembre 2007 - Disclaimer

ORBIFLY MET'MAP TEAM :

Programmation & Développement : Alexandra Zaïnal
Conception & Développement : Baudouin d'Aumeries
Co-Programmation & Développement : Marc-Olivier Méhu
Soutien technique & logistique : Manuel Goepfert

Contact : metmap@orbifly.com




SOURCES & CREDITS :

   NOAA